Flight Track Log - Related Links

Times and Time Zones

All times are in EDT time to prevent confusion due to time zone crossing. See the FLG4216 flight status page for this flight to view local times or setup timezone preferences in your user account.

Time Position Orientation Groundspeed Altitude Reporting Facility
EDT Latitude Longitude Course Direction KTS MPH feet Rate Location/Type
Sun 05:58:01 PM 39.0333 -84.6667 347° North 173 199 1,600  Level Cincinnati TRACON
Sun 05:59:19 PM 39.0333 -84.6000 90° East 224 258 3,600 2,010 Climbing Cincinnati TRACON
Sun 06:01:00 PM 39.0776 -84.4019 15° North  Level FlightAware Approximate
Sun 06:01:18 PM 39.1611 -84.5447 19° North 286 329 8,200  Level Indianapolis Center
Sun 06:02:00 PM 39.1617 -84.4352 347° North  Level FlightAware Approximate
Sun 06:03:00 PM 39.2497 -84.4616 347° North  Level FlightAware Approximate
Sun 06:03:22 PM 39.3597 -84.5108 North 337 388 12,300  Level Indianapolis Center
Sun 06:04:24 PM 39.4656 -84.4944 North 367 422 14,200 1,742 Climbing Indianapolis Center
Sun 06:05:26 PM 39.5725 -84.4744 North 379 436 15,900 1,452 Climbing Indianapolis Center
Sun 06:06:28 PM 39.6822 -84.4558 North 389 448 17,200 1,355 Climbing Indianapolis Center
Sun 06:07:30 PM 39.7953 -84.4364 North 399 459 18,700 871 Climbing Indianapolis Center
Sun 06:08:32 PM 39.9097 -84.4147 North 407 468 19,000 145 Climbing Indianapolis Center
Sun 06:09:34 PM 40.0231 -84.3972 North 406 467 19,000  Level Indianapolis Center
Sun 06:10:36 PM 40.1417 -84.3994 359° North 418 481 19,000  Level Indianapolis Center
Sun 06:11:38 PM 40.2811 -84.4039 359° North 423 487 19,000  Level Indianapolis Center
Sun 06:12:40 PM 40.3997 -84.4061 359° North 421 484 19,000  Level Indianapolis Center
Sun 06:13:42 PM 40.5178 -84.4083 359° North 421 484 19,000  Level Indianapolis Center
Sun 06:14:44 PM 40.6347 -84.4114 359° North 415 478 19,000  Level Indianapolis Center
Sun 06:15:46 PM 40.7497 -84.4153 359° North 409 471 19,000  Level Indianapolis Center
Sun 06:16:48 PM 40.8644 -84.4178 359° North 408 470 19,000  Level Indianapolis Center
Sun 06:18:00 PM 40.9989 -84.4242 358° North 401 461 19,000 -455 Level Cleveland Center
Sun 06:19:00 PM 41.1114 -84.4253 360° North 401 461 18,000 -1,300 Descending Cleveland Center
Sun 06:20:00 PM 41.2303 -84.4294 358° North 401 461 16,400 -1,400 Descending Cleveland Center
Sun 06:21:00 PM 41.3364 -84.4331 359° North 396 456 15,200 -1,150 Descending Cleveland Center
Sun 06:22:00 PM 41.4428 -84.4367 359° North 384 442 14,100 -1,100 Descending Cleveland Center
Sun 06:23:00 PM 41.5450 -84.4344 North 374 430 13,000 -1,050 Descending Cleveland Center
Sun 06:24:00 PM 41.6469 -84.4378 359° North 368 423 12,000 -500 Descending Cleveland Center
Sun 06:25:00 PM 41.7264 -84.3672 34° Northeast 323 372 12,000  Level Cleveland Center
Sun 06:25:20 PM 41.7383 -84.3289 67° East 336 387 12,000  Level Cleveland Center
Sun 06:26:00 PM 41.7567 -84.2744 66° East 306 352 12,000  Level Cleveland Center
Sun 06:27:00 PM 41.7897 -84.1536 70° East 306 352 12,000  Level Cleveland Center
Sun 06:28:00 PM 41.8219 -84.0553 66° East 301 346 12,000 -150 Level Cleveland Center
Sun 06:29:00 PM 41.8919 -84.0144 23° Northeast 259 298 11,700 -800 Descending Cleveland Center
Sun 06:30:00 PM 41.9594 -83.9872 17° North 248 285 10,400 -1,350 Descending Cleveland Center
Sun 06:31:00 PM 41.9764 -83.9072 74° East 212 244 9,000 -1,400 Descending Cleveland Center
Sun 06:32:00 PM 41.9786 -83.8261 88° East 200 230 7,600 -1,000 Descending Cleveland Center
Sun 06:33:00 PM 41.9600 -83.7469 108° East 207 238 7,000 -850 Descending Cleveland Center
Sun 06:34:00 PM 41.9769 -83.6669 74° East 207 238 5,900 -1,000 Descending Cleveland Center
Sun 06:35:00 PM 41.9997 -83.5925 68° East 212 244 5,000 -716 Descending Cleveland Center
Sun 06:36:14 PM 42.0394 -83.5050 59° Northeast 192 221 4,300 -756 Descending Cleveland Center
Sun 06:37:15 PM 42.0861 -83.4736 27° Northeast 178 205 3,300 -984 Descending Cleveland Center
Sun 06:38:16 PM 42.1286 -83.4389 31° Northeast 169 194 2,300 -885 Descending Cleveland Center
Sun 06:39:17 PM 42.1669 -83.4100 29° Northeast 144 166 1,500 -787 Descending Cleveland Center

Login

Don't have an account? Register now (free) for customized features, flight alerts, and more!